Time;durP1;ratioP1;P1;durP2;ratioP2;P2;SDS_P1;SDS_P2;PMS_P1;PMS_P2;Temp;Humidity;BMP_temperature;BMP_pressure;BME280_temperature;BME280_humidity;BME280_pressure;Samples;Min_cycle;Max_cycle;Signal;HPM_P1;HPM_P2
2023/05/18 07:19:08;;;;;;;22.20;7.13;;;28.60;42.60;;;;;;5088338;27;20412;-59
2023/05/18 07:21:34;;;;;;;16.73;7.63;;;28.60;42.80;;;;;;5096464;28;20074;-58
2023/05/18 07:24:01;;;;;;;20.83;6.85;;;28.60;42.80;;;;;;5091504;28;20465;-59
2023/05/18 07:26:28;;;;;;;14.23;6.75;;;28.60;42.90;;;;;;5087841;28;20071;-59
2023/05/18 07:28:55;;;;;;;12.68;6.63;;;28.60;43.10;;;;;;5090722;28;20060;-58
2023/05/18 07:31:21;;;;;;;14.07;6.20;;;28.50;43.40;;;;;;5085822;28;20060;-58
2023/05/18 07:33:48;;;;;;;12.45;5.57;;;28.50;43.70;;;;;;5085239;28;20092;-57
2023/05/18 07:36:15;;;;;;;9.57;5.95;;;28.50;44.10;;;;;;5085440;28;20048;-57
2023/05/18 07:38:41;;;;;;;14.52;6.22;;;28.40;44.40;;;;;;5086092;28;20065;-59
2023/05/18 07:41:07;;;;;;;12.23;5.88;;;28.30;44.90;;;;;;5086572;28;20557;-57
2023/05/18 07:43:34;;;;;;;15.20;5.80;;;28.30;45.30;;;;;;5087819;28;20050;-59
2023/05/18 07:46:00;;;;;;;20.55;6.40;;;28.30;45.60;;;;;;5090973;28;20142;-60
2023/05/18 07:48:27;;;;;;;13.30;6.47;;;28.30;45.90;;;;;;5088256;28;20132;-59
2023/05/18 07:50:53;;;;;;;12.63;5.65;;;28.20;46.10;;;;;;5082427;28;20061;-58
2023/05/18 07:53:19;;;;;;;11.07;5.97;;;28.20;46.10;;;;;;5084402;28;20074;-57
2023/05/18 07:55:46;;;;;;;12.20;6.03;;;28.20;46.30;;;;;;5085092;28;20130;-58
2023/05/18 07:58:13;;;;;;;14.50;5.90;;;28.10;46.40;;;;;;5069895;28;20061;-60
2023/05/18 08:00:40;;;;;;;11.23;5.63;;;28.10;46.70;;;;;;5064433;28;20065;-57
2023/05/18 08:03:07;;;;;;;13.82;5.82;;;28.10;47.00;;;;;;5066327;28;20157;-58
2023/05/18 08:05:33;;;;;;;11.63;5.13;;;28.00;47.20;;;;;;5066615;28;20078;-61
2023/05/18 08:08:01;;;;;;;10.63;5.65;;;28.00;47.70;;;;;;5064303;28;20068;-58
2023/05/18 08:10:28;;;;;;;16.95;5.93;;;28.00;47.90;;;;;;5066847;28;20127;-59
2023/05/18 08:12:54;;;;;;;15.05;5.45;;;28.00;48.00;;;;;;5063540;28;20061;-58
2023/05/18 08:15:21;;;;;;;11.43;5.60;;;27.90;48.30;;;;;;5064039;28;20057;-59
2023/05/18 08:17:47;;;;;;;13.50;5.88;;;27.90;48.50;;;;;;5064694;28;20089;-59
2023/05/18 08:20:13;;;;;;;15.45;5.53;;;27.90;48.50;;;;;;5064308;28;20054;-58
2023/05/18 08:22:40;;;;;;;12.90;5.75;;;27.90;48.80;;;;;;5065564;28;20059;-58
2023/05/18 08:25:07;;;;;;;12.43;5.13;;;27.80;49.20;;;;;;5063499;28;20051;-60
2023/05/18 08:27:33;;;;;;;17.98;5.60;;;27.80;49.40;;;;;;5063885;28;20097;-59
2023/05/18 08:30:00;;;;;;;12.10;5.13;;;27.80;50.00;;;;;;5054095;28;20051;-59
2023/05/18 08:32:26;;;;;;;14.77;6.00;;;27.70;50.50;;;;;;5050588;28;20050;-58
2023/05/18 08:34:53;;;;;;;12.18;5.10;;;27.70;50.80;;;;;;5050996;28;20419;-59
2023/05/18 08:37:20;;;;;;;10.65;5.40;;;27.60;50.90;;;;;;5049923;28;20083;-59
2023/05/18 08:39:47;;;;;;;15.10;5.15;;;27.60;51.20;;;;;;5049788;28;20059;-61
2023/05/18 08:42:23;;;;;;;12.82;5.55;;;27.60;51.50;;;;;;5051834;28;20077;-60
2023/05/18 08:44:57;;;;;;;9.48;4.78;;;27.60;51.90;;;;;;5049658;28;20065;-59
2023/05/18 08:47:25;;;;;;;15.63;5.85;;;27.50;52.40;;;;;;5050021;28;20537;-59
2023/05/18 08:49:54;;;;;;;20.17;4.75;;;27.40;52.80;;;;;;5050592;28;20159;-59
2023/05/18 08:52:28;;;;;;;11.80;5.22;;;27.40;53.20;;;;;;5047715;28;20052;-59
2023/05/18 08:54:56;;;;;;;12.25;5.60;;;27.30;53.60;;;;;;5048647;28;20126;-59
2023/05/18 08:57:23;;;;;;;11.55;5.18;;;27.30;54.30;;;;;;5051579;28;20529;-59
2023/05/18 08:59:52;;;;;;;15.05;5.95;;;27.20;54.80;;;;;;5051156;28;20582;-58
2023/05/18 09:02:18;;;;;;;17.35;5.88;;;27.10;55.30;;;;;;5049106;28;20072;-60
2023/05/18 09:04:47;;;;;;;21.58;7.10;;;27.10;55.70;;;;;;5048471;28;20060;-60
2023/05/18 09:07:13;;;;;;;19.02;7.05;;;27.00;56.20;;;;;;5049696;28;20079;-60
2023/05/18 09:09:41;;;;;;;20.08;6.97;;;26.90;56.40;;;;;;5050271;28;20158;-60
2023/05/18 09:12:08;;;;;;;14.32;6.32;;;26.90;56.80;;;;;;5050026;28;20095;-60
2023/05/18 09:14:35;;;;;;;20.50;6.03;;;26.90;57.50;;;;;;5051946;28;20116;-60
2023/05/18 09:17:02;;;;;;;18.08;5.75;;;26.80;57.30;;;;;;5048948;28;20105;-58
2023/05/18 09:19:28;;;;;;;17.60;5.38;;;26.80;57.90;;;;;;5049789;28;20133;-59
2023/05/18 09:21:54;;;;;;;15.38;5.55;;;26.80;57.60;;;;;;5050536;28;20507;-59
2023/05/18 09:24:21;;;;;;;16.70;5.82;;;26.70;57.70;;;;;;5050080;28;20058;-59
2023/05/18 09:26:48;;;;;;;15.70;6.43;;;26.70;57.90;;;;;;5049869;28;20459;-60
2023/05/18 09:29:19;;;;;;;18.45;6.78;;;26.70;58.10;;;;;;5049902;28;20080;-60
2023/05/18 09:31:46;;;;;;;13.10;6.22;;;26.70;58.30;;;;;;5048598;28;20516;-59
2023/05/18 09:34:13;;;;;;;14.77;6.00;;;26.60;58.40;;;;;;5049384;28;20758;-59
2023/05/18 09:36:41;;;;;;;13.60;6.15;;;26.60;58.90;;;;;;5049814;28;20076;-59
2023/05/18 09:39:10;;;;;;;13.07;5.43;;;26.60;58.90;;;;;;5052676;28;20073;-58
2023/05/18 09:41:40;;;;;;;11.18;5.35;;;26.60;59.20;;;;;;5048365;28;20059;-60
2023/05/18 09:44:11;;;;;;;16.77;5.25;;;26.40;59.80;;;;;;5052004;28;20075;-59
2023/05/18 09:46:41;;;;;;;16.90;4.88;;;26.40;60.50;;;;;;5049671;28;20469;-59
2023/05/18 09:49:08;;;;;;;29.27;4.93;;;26.30;61.40;;;;;;5051854;28;20528;-60
2023/05/18 09:51:36;;;;;;;12.57;5.28;;;26.30;62.20;;;;;;5049263;28;20162;-60
2023/05/18 09:54:07;;;;;;;14.82;4.97;;;26.30;63.20;;;;;;5048597;28;20065;-59
2023/05/18 09:56:37;;;;;;;15.35;4.90;;;26.30;64.40;;;;;;5049055;28;20634;-58
2023/05/18 09:59:14;;;;;;;12.52;5.03;;;26.20;65.20;;;;;;5048753;28;21280;-59
2023/05/18 10:02:01;;;;;;;12.65;4.93;;;26.10;66.90;;;;;;5048411;28;20060;-60
2023/05/18 10:04:53;;;;;;;;;;;26.00;68.80;;;;;;5045958;28;20493;-60
2023/05/18 10:07:22;;;;;;;14.25;5.60;;;26.00;71.10;;;;;;5047161;28;19945;-59
2023/05/18 10:10:01;;;;;;;12.93;5.25;;;26.00;72.70;;;;;;5046955;28;20155;-60
2023/05/18 10:12:27;;;;;;;12.13;5.20;;;26.00;73.70;;;;;;5047266;28;20090;-59
2023/05/18 10:14:54;;;;;;;28.70;13.32;;;26.10;74.10;;;;;;5048375;28;20077;-62
2023/05/18 10:17:21;;;;;;;19.73;8.25;;;26.10;74.40;;;;;;5047652;28;20090;-59
2023/05/18 10:19:52;;;;;;;12.70;5.20;;;26.00;75.40;;;;;;5046874;28;20093;-60
2023/05/18 10:22:22;;;;;;;20.98;6.32;;;26.00;76.30;;;;;;5048006;28;20078;-59
2023/05/18 10:24:51;;;;;;;14.00;5.63;;;25.90;76.80;;;;;;5046863;28;20060;-59
2023/05/18 10:27:23;;;;;;;14.27;5.78;;;25.80;77.90;;;;;;5046856;28;20062;-59
2023/05/18 10:29:51;;;;;;;15.60;5.88;;;25.80;78.70;;;;;;5049690;28;20153;-59
2023/05/18 10:32:19;;;;;;;15.27;5.38;;;25.70;79.60;;;;;;5047768;28;20067;-59
2023/05/18 10:34:46;;;;;;;19.95;5.88;;;25.60;80.10;;;;;;5047158;28;20097;-59
2023/05/18 10:37:15;;;;;;;19.40;6.93;;;25.60;81.00;;;;;;5047916;28;20167;-59
2023/05/18 10:39:44;;;;;;;16.17;6.07;;;25.50;81.10;;;;;;5047829;28;20166;-58
2023/05/18 10:42:12;;;;;;;16.02;6.07;;;25.50;81.90;;;;;;5047288;28;20067;-60
2023/05/18 10:44:39;;;;;;;18.42;6.03;;;25.40;82.20;;;;;;5047978;28;20113;-62
2023/05/18 10:47:07;;;;;;;19.83;5.30;;;25.20;83.20;;;;;;5048384;28;20087;-59
2023/05/18 10:49:35;;;;;;;13.55;5.28;;;25.10;83.40;;;;;;5048226;28;20157;-59
2023/05/18 10:52:03;;;;;;;16.38;5.80;;;25.20;82.70;;;;;;5049015;28;20116;-60
2023/05/18 10:54:29;;;;;;;14.60;5.20;;;25.30;82.60;;;;;;5047736;28;20067;-59
2023/05/18 10:56:56;;;;;;;13.70;5.20;;;25.10;83.80;;;;;;5047591;28;20141;-59
2023/05/18 10:59:23;;;;;;;14.23;5.22;;;25.10;85.30;;;;;;5048859;28;20067;-60
2023/05/18 11:01:51;;;;;;;15.00;6.00;;;25.10;85.30;;;;;;5047218;28;20071;-61
2023/05/18 11:04:31;;;;;;;13.57;4.82;;;25.00;86.20;;;;;;5048100;28;20152;-60
2023/05/18 11:06:59;;;;;;;18.25;5.55;;;24.90;87.20;;;;;;5047899;28;20071;-60
2023/05/18 11:09:27;;;;;;;16.15;4.82;;;25.00;87.30;;;;;;5047523;28;20145;-58
2023/05/18 11:11:56;;;;;;;12.80;4.78;;;25.00;87.50;;;;;;5047614;28;20057;-59
2023/05/18 11:14:31;;;;;;;15.07;5.43;;;24.90;87.70;;;;;;5047837;28;20068;-59
2023/05/18 11:17:19;;;;;;;16.10;5.50;;;24.70;88.20;;;;;;5047199;28;20720;-60
2023/05/18 11:20:06;;;;;;;14.05;6.22;;;24.50;89.20;;;;;;5047261;28;20065;-60
2023/05/18 11:22:57;;;;;;;18.30;6.18;;;24.50;90.00;;;;;;5047889;28;20508;-60
2023/05/18 11:25:26;;;;;;;9.43;4.85;;;24.50;90.10;;;;;;5047083;28;20069;-60
2023/05/18 11:27:55;;;;;;;22.08;6.35;;;24.30;90.90;;;;;;5045959;28;20086;-61
2023/05/18 11:30:36;;;;;;;20.90;6.75;;;24.30;91.10;;;;;;5048973;28;20074;-60
2023/05/18 11:33:20;;;;;;;30.30;8.20;;;24.10;91.50;;;;;;5047444;28;20082;-59
2023/05/18 11:36:13;;;;;;;33.72;12.52;;;24.00;91.50;;;;;;5046064;28;20071;-59
2023/05/18 11:38:54;;;;;;;35.83;12.45;;;23.90;91.10;;;;;;5047129;28;20094;-61
2023/05/18 11:41:38;;;;;;;209.25;18.42;;;23.90;90.60;;;;;;5047110;28;20106;-61
2023/05/18 11:44:11;;;;;;;28.88;9.23;;;23.80;89.20;;;;;;5048240;28;20079;-59
2023/05/18 11:47:03;;;;;;;22.00;8.50;;;23.70;87.10;;;;;;5046126;28;20086;-60
2023/05/18 11:49:44;;;;;;;22.27;6.97;;;23.70;85.40;;;;;;5047999;28;20065;-60
2023/05/18 11:52:16;;;;;;;15.98;6.70;;;23.70;84.00;;;;;;5046611;28;20070;-60
2023/05/18 11:54:51;;;;;;;16.55;6.38;;;23.70;83.10;;;;;;5047031;28;20077;-59
2023/05/18 11:57:25;;;;;;;18.83;6.40;;;23.60;82.30;;;;;;5049048;28;20085;-58
2023/05/18 11:59:58;;;;;;;20.85;6.63;;;23.70;81.60;;;;;;5047926;28;20095;-60
2023/05/18 12:02:31;;;;;;;14.07;5.13;;;23.80;80.40;;;;;;5049758;28;20513;-59
2023/05/18 12:04:59;;;;;;;9.07;5.13;;;23.80;79.50;;;;;;5049189;28;20087;-60
2023/05/18 12:07:34;;;;;;;15.35;5.80;;;23.90;79.10;;;;;;5052682;28;20132;-59
2023/05/18 12:10:03;;;;;;;11.75;5.35;;;23.90;78.90;;;;;;5050635;28;20549;-60
2023/05/18 12:12:30;;;;;;;15.55;5.50;;;24.00;78.70;;;;;;5050554;28;20435;-58
2023/05/18 12:15:02;;;;;;;14.57;5.88;;;24.00;78.70;;;;;;5050769;28;20580;-60
2023/05/18 12:17:43;;;;;;;18.60;5.95;;;24.00;79.40;;;;;;5050127;28;20116;-59
2023/05/18 12:20:14;;;;;;;23.52;7.03;;;23.90;79.00;;;;;;5050399;28;20061;-61
2023/05/18 12:22:50;;;;;;;19.33;7.05;;;24.00;78.70;;;;;;5051319;28;20537;-60
2023/05/18 12:25:18;;;;;;;24.70;7.70;;;24.10;78.30;;;;;;5050606;28;20058;-58
2023/05/18 12:27:49;;;;;;;24.40;9.45;;;24.20;77.80;;;;;;5050649;28;20230;-59
2023/05/18 12:30:19;;;;;;;25.63;10.35;;;24.20;77.00;;;;;;5052214;28;20076;-59
2023/05/18 12:32:48;;;;;;;32.00;9.02;;;24.30;76.70;;;;;;5052109;28;20079;-60
2023/05/18 12:35:14;;;;;;;30.00;9.40;;;24.40;75.80;;;;;;5049036;28;20073;-59
2023/05/18 12:37:43;;;;;;;22.10;8.48;;;24.40;75.10;;;;;;5051291;28;20091;-61
2023/05/18 12:40:11;;;;;;;26.50;7.60;;;24.50;74.70;;;;;;5051550;28;20074;-59
2023/05/18 12:42:38;;;;;;;19.77;6.82;;;24.50;74.30;;;;;;5049140;28;20087;-60
2023/05/18 12:45:04;;;;;;;25.40;6.72;;;24.50;73.70;;;;;;5051196;28;20450;-60
2023/05/18 12:47:39;;;;;;;14.82;6.43;;;24.50;73.40;;;;;;5050881;28;20066;-59
2023/05/18 12:50:06;;;;;;;17.42;5.82;;;24.60;73.70;;;;;;5049852;28;20484;-59
2023/05/18 12:52:33;;;;;;;28.00;5.85;;;24.60;73.30;;;;;;5050279;28;20064;-58
2023/05/18 12:54:59;;;;;;;29.50;6.05;;;24.60;73.10;;;;;;5050221;28;20077;-60
2023/05/18 12:57:29;;;;;;;24.52;7.28;;;24.50;72.60;;;;;;5050207;28;20522;-60
2023/05/18 13:00:00;;;;;;;37.22;11.45;;;24.50;72.10;;;;;;5051332;28;20141;-59
2023/05/18 13:02:34;;;;;;;38.63;14.70;;;24.40;72.30;;;;;;5051104;28;20074;-60
2023/05/18 13:05:10;;;;;;;50.92;17.83;;;24.50;72.60;;;;;;5049384;28;20071;-60
2023/05/18 13:07:42;;;;;;;54.85;20.98;;;24.40;72.90;;;;;;5049655;28;20069;-60
2023/05/18 13:10:15;;;;;;;64.40;21.40;;;24.50;72.90;;;;;;5049166;28;20069;-59
2023/05/18 13:12:47;;;;;;;56.83;20.65;;;24.50;73.10;;;;;;5049723;28;20668;-59
2023/05/18 13:15:13;;;;;;;48.95;17.60;;;24.50;73.60;;;;;;5048598;28;20068;-59
2023/05/18 13:17:58;;;;;;;42.80;12.57;;;24.50;74.20;;;;;;5049674;28;20114;-60
2023/05/18 13:20:53;;;;;;;39.63;10.27;;;24.60;74.70;;;;;;5049698;28;20519;-59
2023/05/18 13:23:25;;;;;;;29.52;8.48;;;24.60;75.20;;;;;;5053459;28;20094;-60
2023/05/18 13:25:52;;;;;;;27.52;7.18;;;24.60;75.40;;;;;;5048592;28;20152;-61
2023/05/18 13:28:20;;;;;;;24.35;6.18;;;24.70;76.00;;;;;;5049807;28;20080;-60
2023/05/18 13:30:47;;;;;;;25.92;6.43;;;24.70;76.50;;;;;;5051032;28;20077;-59
2023/05/18 13:33:18;;;;;;;18.17;5.60;;;24.70;76.60;;;;;;5048327;28;20062;-59
2023/05/18 13:35:45;;;;;;;20.70;4.78;;;24.70;77.20;;;;;;5051720;28;20210;-61
2023/05/18 13:38:13;;;;;;;24.90;5.65;;;24.70;77.90;;;;;;5050815;28;20083;-57
2023/05/18 13:40:40;;;;;;;16.35;5.40;;;24.70;78.30;;;;;;5049626;28;20150;-60
2023/05/18 13:43:06;;;;;;;22.48;5.45;;;24.70;78.80;;;;;;5054755;28;20745;-61
2023/05/18 13:45:34;;;;;;;22.35;5.10;;;24.70;78.80;;;;;;5055144;28;20076;-60
2023/05/18 13:48:06;;;;;;;22.13;5.60;;;24.70;79.30;;;;;;5055528;28;20084;-63
2023/05/18 13:50:33;;;;;;;23.90;5.68;;;24.80;79.50;;;;;;5054543;28;20068;-59
2023/05/18 13:52:59;;;;;;;18.67;5.88;;;24.80;79.80;;;;;;5053574;28;20076;-60
2023/05/18 13:55:26;;;;;;;28.73;6.25;;;24.80;80.00;;;;;;5049475;28;20073;-60
2023/05/18 13:57:52;;;;;;;25.15;6.00;;;24.90;80.30;;;;;;5056773;28;20116;-61
2023/05/18 14:00:20;;;;;;;28.88;7.07;;;24.90;80.60;;;;;;5052997;28;20070;-59
2023/05/18 14:02:47;;;;;;;38.13;7.43;;;24.90;80.20;;;;;;5054248;28;20097;-59
2023/05/18 14:05:14;;;;;;;43.80;9.23;;;25.00;80.00;;;;;;5052063;28;20068;-53
2023/05/18 14:07:41;;;;;;;36.70;9.27;;;25.10;79.70;;;;;;5049186;28;20068;-56
2023/05/18 14:10:10;;;;;;;41.53;9.52;;;25.10;79.70;;;;;;5052211;28;20615;-57
2023/05/18 14:12:37;;;;;;;63.45;14.65;;;25.20;79.70;;;;;;5052457;28;20072;-59
2023/05/18 14:15:04;;;;;;;35.40;12.90;;;25.30;79.50;;;;;;5048129;28;20079;-57
2023/05/18 14:17:33;;;;;;;37.60;10.10;;;25.30;79.80;;;;;;5049190;28;20129;-58
2023/05/18 14:20:00;;;;;;;35.90;12.00;;;25.40;79.30;;;;;;5049117;28;20105;-55
2023/05/18 14:22:26;;;;;;;27.80;5.70;;;25.40;78.80;;;;;;5050592;28;20058;-58
2023/05/18 14:24:53;;;;;;;23.92;5.55;;;25.40;78.80;;;;;;5048274;28;20085;-58
2023/05/18 14:27:20;;;;;;;19.63;5.10;;;25.50;78.80;;;;;;5050162;28;20500;-58
2023/05/18 14:29:46;;;;;;;33.40;5.97;;;25.50;78.70;;;;;;5052085;28;20063;-59
2023/05/18 14:32:13;;;;;;;22.95;5.72;;;25.60;78.50;;;;;;5052268;28;20694;-56
2023/05/18 14:34:39;;;;;;;24.75;6.20;;;25.60;78.20;;;;;;5047941;28;20071;-56
2023/05/18 14:37:06;;;;;;;28.25;6.57;;;25.70;78.20;;;;;;5048783;28;20111;-63
2023/05/18 14:39:32;;;;;;;32.35;6.85;;;25.70;78.30;;;;;;5048165;28;20060;-61
2023/05/18 14:41:59;;;;;;;21.23;6.10;;;25.70;78.30;;;;;;5045804;28;20139;-59
2023/05/18 14:44:25;;;;;;;27.20;5.82;;;25.80;78.10;;;;;;5048321;28;20064;-60
2023/05/18 14:46:52;;;;;;;91.63;7.18;;;25.80;77.90;;;;;;5045995;28;20060;-52
2023/05/18 14:49:18;;;;;;;40.22;6.45;;;25.80;77.40;;;;;;5045435;28;20084;-54
2023/05/18 14:51:44;;;;;;;19.77;5.15;;;25.90;77.20;;;;;;5044374;28;20141;-59
2023/05/18 14:54:12;;;;;;;23.92;5.90;;;26.00;76.70;;;;;;5045843;28;20079;-55
2023/05/18 14:56:39;;;;;;;25.63;6.00;;;26.10;76.60;;;;;;5046597;28;20078;-57
2023/05/18 14:59:05;;;;;;;20.98;6.07;;;26.20;75.50;;;;;;5047694;28;20100;-54
2023/05/18 15:01:32;;;;;;;30.77;6.38;;;26.30;75.60;;;;;;5048483;28;20446;-55
2023/05/18 15:03:58;;;;;;;28.63;6.10;;;26.40;75.10;;;;;;5047296;28;20119;-56
2023/05/18 15:06:25;;;;;;;22.55;6.47;;;26.50;74.90;;;;;;5046062;28;20139;-54
2023/05/18 15:08:51;;;;;;;19.98;5.90;;;26.50;74.20;;;;;;5049737;28;20063;-52
2023/05/18 15:11:19;;;;;;;23.70;6.40;;;26.60;73.70;;;;;;5049684;28;20053;-56
2023/05/18 15:13:46;;;;;;;25.00;5.32;;;26.70;73.60;;;;;;5048327;28;20179;-56
2023/05/18 15:16:13;;;;;;;20.75;6.07;;;26.80;72.40;;;;;;5046440;28;20514;-54
2023/05/18 15:18:40;;;;;;;25.25;6.15;;;26.80;71.30;;;;;;5052879;28;20177;-57
2023/05/18 15:21:06;;;;;;;21.67;5.40;;;26.90;71.00;;;;;;5047782;28;20126;-56
2023/05/18 15:23:33;;;;;;;18.52;4.78;;;27.00;70.40;;;;;;5047673;28;20042;-55
2023/05/18 15:25:59;;;;;;;25.25;4.93;;;27.10;70.60;;;;;;5046432;28;20139;-55
2023/05/18 15:28:26;;;;;;;35.42;6.47;;;27.20;70.10;;;;;;5058564;28;20052;-54
2023/05/18 15:30:53;;;;;;;32.70;6.10;;;27.30;69.30;;;;;;5052915;28;20580;-54
2023/05/18 15:33:19;;;;;;;29.50;6.43;;;27.40;68.40;;;;;;5047512;28;20054;-56
2023/05/18 15:35:46;;;;;;;34.38;7.45;;;27.40;68.70;;;;;;5054689;28;20079;-57
2023/05/18 15:38:13;;;;;;;36.67;7.00;;;27.60;68.60;;;;;;5053170;28;20088;-55
2023/05/18 15:40:42;;;;;;;30.42;5.78;;;27.70;67.70;;;;;;5052964;28;21060;-54
2023/05/18 15:43:08;;;;;;;27.80;5.95;;;27.80;67.50;;;;;;5054195;28;20626;-54
2023/05/18 15:45:35;;;;;;;28.33;6.47;;;28.00;66.30;;;;;;5050737;28;20063;-57
2023/05/18 15:48:02;;;;;;;21.73;6.43;;;28.20;65.70;;;;;;5047935;28;20067;-55
2023/05/18 15:50:28;;;;;;;32.20;6.00;;;28.20;64.50;;;;;;5048257;28;20058;-55
2023/05/18 15:52:54;;;;;;;25.13;5.43;;;28.40;64.30;;;;;;5051782;28;20129;-57
2023/05/18 15:55:21;;;;;;;21.52;5.40;;;28.50;62.90;;;;;;5053673;28;20501;-54
2023/05/18 15:57:47;;;;;;;22.73;5.85;;;28.70;61.30;;;;;;5049081;28;20543;-57
2023/05/18 16:00:14;;;;;;;29.35;6.32;;;28.80;60.90;;;;;;5052599;28;20043;-55
2023/05/18 16:02:40;;;;;;;24.75;6.30;;;28.90;58.90;;;;;;5051244;28;20046;-55
2023/05/18 16:05:07;;;;;;;25.25;6.20;;;29.00;58.30;;;;;;5051907;28;20043;-60
2023/05/18 16:07:34;;;;;;;22.83;5.93;;;29.20;57.90;;;;;;5049858;28;20047;-57
2023/05/18 16:10:00;;;;;;;17.23;5.43;;;29.40;56.90;;;;;;5052567;28;20489;-53
2023/05/18 16:12:26;;;;;;;18.70;5.32;;;29.40;57.10;;;;;;5054233;28;20041;-54
2023/05/18 16:14:53;;;;;;;16.77;5.53;;;29.50;56.20;;;;;;5063039;28;20097;-53
2023/05/18 16:17:19;;;;;;;23.30;5.25;;;29.60;55.70;;;;;;5053055;28;20118;-55
2023/05/18 16:19:46;;;;;;;18.88;5.40;;;29.60;55.80;;;;;;5052812;28;20949;-54
2023/05/18 16:22:12;;;;;;;22.77;6.40;;;29.60;56.80;;;;;;5054969;28;20115;-57
2023/05/18 16:24:39;;;;;;;21.58;6.28;;;29.60;57.50;;;;;;5050445;28;20066;-56
2023/05/18 16:27:05;;;;;;;27.00;6.30;;;29.60;57.50;;;;;;5057281;28;20043;-58
2023/05/18 16:29:32;;;;;;;16.65;5.15;;;29.60;57.40;;;;;;5056623;28;20047;-56
2023/05/18 16:31:58;;;;;;;19.75;5.25;;;29.70;56.40;;;;;;5051228;28;20506;-57
2023/05/18 16:34:24;;;;;;;19.13;5.43;;;29.70;56.30;;;;;;5049944;28;20049;-59
2023/05/18 16:36:51;;;;;;;14.55;5.32;;;29.80;56.40;;;;;;5050315;28;20142;-59
2023/05/18 16:39:17;;;;;;;14.45;5.88;;;30.00;57.00;;;;;;5050383;28;20075;-61
2023/05/18 16:41:44;;;;;;;17.35;5.60;;;30.00;57.90;;;;;;5050490;28;20076;-58
2023/05/18 16:44:10;;;;;;;18.42;6.63;;;30.00;58.10;;;;;;5051617;28;20033;-57
2023/05/18 16:46:36;;;;;;;25.08;7.03;;;30.10;58.80;;;;;;5049836;28;20046;-56
2023/05/18 16:49:03;;;;;;;21.92;5.97;;;30.20;58.50;;;;;;5053164;28;20057;-56
2023/05/18 16:51:30;;;;;;;22.50;5.93;;;30.20;58.40;;;;;;5051553;28;20134;-56
2023/05/18 16:53:57;;;;;;;15.90;5.55;;;30.30;57.90;;;;;;5049848;28;20126;-57
2023/05/18 16:56:24;;;;;;;17.30;6.00;;;30.40;57.90;;;;;;5049780;28;20058;-57
2023/05/18 16:58:52;;;;;;;25.23;6.25;;;30.30;57.90;;;;;;5049921;28;20053;-59
2023/05/18 17:01:19;;;;;;;21.80;6.13;;;30.40;57.70;;;;;;5057726;28;20098;-58
2023/05/18 17:03:47;;;;;;;19.10;5.28;;;30.60;56.80;;;;;;5057521;28;20059;-56
2023/05/18 17:06:14;;;;;;;19.40;5.80;;;30.60;57.30;;;;;;5050839;28;20032;-56
2023/05/18 17:08:40;;;;;;;24.30;5.82;;;30.80;57.20;;;;;;5050048;28;20486;-57
2023/05/18 17:11:06;;;;;;;19.10;6.13;;;31.20;56.20;;;;;;5050496;28;20548;-56
2023/05/18 17:13:33;;;;;;;20.50;6.20;;;31.40;55.50;;;;;;5050855;28;20047;-57
2023/05/18 17:16:00;;;;;;;22.80;6.25;;;31.60;55.40;;;;;;5050420;28;20021;-58
2023/05/18 17:18:27;;;;;;;17.25;5.97;;;31.80;54.20;;;;;;5049730;28;20421;-57
2023/05/18 17:20:53;;;;;;;14.77;5.07;;;31.80;53.50;;;;;;5050541;28;20054;-55
2023/05/18 17:23:19;;;;;;;16.73;6.63;;;32.00;53.00;;;;;;5052020;28;20066;-55
2023/05/18 17:25:46;;;;;;;15.52;5.50;;;32.30;51.90;;;;;;5050735;28;20066;-56
2023/05/18 17:28:15;;;;;;;26.75;7.30;;;32.30;52.10;;;;;;5050789;28;20036;-57
2023/05/18 17:30:41;;;;;;;19.17;6.10;;;32.50;51.90;;;;;;5059895;28;20086;-58
2023/05/18 17:33:07;;;;;;;16.35;6.35;;;32.90;50.90;;;;;;5056703;28;20020;-58
2023/05/18 17:35:34;;;;;;;16.80;5.88;;;33.00;50.60;;;;;;5066367;28;20037;-57
2023/05/18 17:38:00;;;;;;;24.10;5.10;;;32.90;50.60;;;;;;5049629;28;20491;-57
2023/05/18 17:40:27;;;;;;;15.05;5.18;;;32.80;50.80;;;;;;5047805;28;20039;-57
2023/05/18 17:42:53;;;;;;;16.88;5.82;;;32.70;50.50;;;;;;5049326;28;20487;-58
2023/05/18 17:45:20;;;;;;;16.42;5.28;;;32.40;50.70;;;;;;5049898;28;20508;-60
2023/05/18 17:47:46;;;;;;;16.88;5.20;;;32.30;51.20;;;;;;5049130;28;20061;-57
2023/05/18 17:50:13;;;;;;;22.02;5.05;;;32.00;51.30;;;;;;5056656;28;20045;-56
2023/05/18 17:52:39;;;;;;;17.63;5.00;;;31.90;51.00;;;;;;5049389;28;20840;-57
2023/05/18 17:55:06;;;;;;;24.17;5.70;;;31.90;51.70;;;;;;5049533;28;20040;-56
2023/05/18 17:57:33;;;;;;;20.20;5.95;;;32.00;52.00;;;;;;5046621;28;20079;-56
2023/05/18 17:59:59;;;;;;;13.88;5.22;;;31.90;51.80;;;;;;5047130;28;20038;-56
2023/05/18 18:02:26;;;;;;;27.88;5.65;;;32.00;51.90;;;;;;5048164;28;20037;-56
2023/05/18 18:04:52;;;;;;;14.32;5.35;;;32.20;52.30;;;;;;5051787;28;20032;-60
2023/05/18 18:07:18;;;;;;;28.90;5.80;;;32.50;51.30;;;;;;5054017;28;20060;-60
2023/05/18 18:09:45;;;;;;;15.63;5.47;;;32.80;51.60;;;;;;5054352;28;20020;-59
2023/05/18 18:12:11;;;;;;;17.98;5.82;;;33.20;49.70;;;;;;5059412;28;20040;-60
2023/05/18 18:14:38;;;;;;;20.23;5.50;;;33.40;48.10;;;;;;5054251;28;20059;-59
2023/05/18 18:17:04;;;;;;;19.95;6.20;;;33.40;48.30;;;;;;5050047;28;20065;-59
2023/05/18 18:19:31;;;;;;;16.70;5.68;;;33.20;48.60;;;;;;5049269;28;20039;-60
2023/05/18 18:21:57;;;;;;;28.23;5.47;;;33.40;49.00;;;;;;5050159;28;20063;-61
2023/05/18 18:24:24;;;;;;;25.20;6.68;;;33.80;47.80;;;;;;5049246;28;20103;-61
2023/05/18 18:26:51;;;;;;;24.23;6.47;;;34.00;47.70;;;;;;5049487;28;20025;-62
2023/05/18 18:29:18;;;;;;;29.73;6.80;;;34.30;47.40;;;;;;5049151;28;20028;-60
2023/05/18 18:31:44;;;;;;;17.42;6.28;;;34.50;46.60;;;;;;5051344;28;20409;-60
2023/05/18 18:34:11;;;;;;;35.47;7.10;;;34.50;46.70;;;;;;5049403;28;20059;-59
2023/05/18 18:36:39;;;;;;;22.38;6.15;;;34.80;45.50;;;;;;5049795;28;20024;-60
2023/05/18 18:39:06;;;;;;;18.05;6.43;;;34.90;45.80;;;;;;5053967;28;20099;-57
2023/05/18 18:41:32;;;;;;;27.35;6.25;;;35.00;45.60;;;;;;5052849;28;20027;-58
2023/05/18 18:43:58;;;;;;;24.02;6.25;;;35.00;45.30;;;;;;5050277;28;20529;-57
2023/05/18 18:46:25;;;;;;;27.67;6.95;;;35.20;44.80;;;;;;5050207;28;20021;-57
2023/05/18 18:48:51;;;;;;;28.15;6.93;;;35.10;44.90;;;;;;5049348;28;20385;-58
2023/05/18 18:51:17;;;;;;;17.15;6.30;;;35.00;45.00;;;;;;5048104;28;20025;-57
2023/05/18 18:53:44;;;;;;;30.33;6.50;;;35.20;45.30;;;;;;5047631;28;20075;-58
2023/05/18 18:56:10;;;;;;;26.17;6.60;;;35.30;44.60;;;;;;5048930;28;20393;-57
2023/05/18 18:58:37;;;;;;;33.88;7.18;;;35.10;44.50;;;;;;5054554;28;20025;-58
2023/05/18 19:01:03;;;;;;;24.73;6.32;;;35.20;44.80;;;;;;5055036;28;20428;-57
2023/05/18 19:03:31;;;;;;;26.77;7.25;;;35.50;45.20;;;;;;5056942;28;20100;-60
2023/05/18 19:05:58;;;;;;;27.17;6.32;;;35.70;44.10;;;;;;5054446;28;20024;-59
2023/05/18 19:08:24;;;;;;;27.13;5.78;;;35.80;43.90;;;;;;5054257;28;20028;-58
2023/05/18 19:10:51;;;;;;;26.50;6.00;;;35.80;44.00;;;;;;5048083;28;20029;-64
2023/05/18 19:13:17;;;;;;;27.67;5.90;;;35.60;44.20;;;;;;5047857;28;20075;-59
2023/05/18 19:15:44;;;;;;;28.95;7.28;;;35.90;44.30;;;;;;5048388;28;20416;-59
2023/05/18 19:18:10;;;;;;;19.02;5.90;;;35.90;43.30;;;;;;5053906;28;20090;-61
2023/05/18 19:20:36;;;;;;;35.53;6.78;;;35.70;42.40;;;;;;5052473;28;20021;-61
2023/05/18 19:23:04;;;;;;;29.92;6.38;;;35.60;42.60;;;;;;5050665;28;20025;-60
2023/05/18 19:25:30;;;;;;;23.67;7.07;;;35.30;43.20;;;;;;5052850;28;20107;-60
2023/05/18 19:27:57;;;;;;;28.13;6.75;;;35.20;44.00;;;;;;5050318;28;20025;-61
2023/05/18 19:30:24;;;;;;;33.17;7.35;;;35.10;44.50;;;;;;5051030;28;20071;-61
2023/05/18 19:32:52;;;;;;;25.77;6.93;;;35.10;44.20;;;;;;5050106;28;20052;-61
2023/05/18 19:35:19;;;;;;;24.42;6.18;;;35.00;43.80;;;;;;5048805;28;20090;-61
2023/05/18 19:37:46;;;;;;;38.10;7.25;;;35.00;43.30;;;;;;5048468;28;20025;-60
2023/05/18 19:40:13;;;;;;;21.45;6.15;;;34.90;43.60;;;;;;5061775;28;20496;-60
2023/05/18 19:42:39;;;;;;;24.15;7.03;;;34.80;43.40;;;;;;5051466;28;20450;-61
2023/05/18 19:45:06;;;;;;;20.73;6.32;;;34.70;41.50;;;;;;5049575;28;20029;-61
2023/05/18 19:47:33;;;;;;;22.98;6.53;;;34.70;41.70;;;;;;5048148;28;20505;-61
2023/05/18 19:49:59;;;;;;;23.98;6.30;;;34.80;41.80;;;;;;5049780;28;20024;-60
2023/05/18 19:52:26;;;;;;;33.00;6.25;;;34.90;41.60;;;;;;5048128;28;20108;-61
2023/05/18 19:54:52;;;;;;;16.95;4.97;;;35.00;41.00;;;;;;5047145;28;20060;-63
2023/05/18 19:57:19;;;;;;;19.35;4.80;;;35.00;39.90;;;;;;5047650;28;20120;-60
2023/05/18 19:59:46;;;;;;;22.10;5.10;;;35.00;40.00;;;;;;5050713;28;20086;-59